sensor_id;sensor_type;location;lat;lon;timestamp;P1;durP1;ratioP1;P2;durP2;ratioP2
79779;SDS011;69258;52.050;10.334;2023-06-14T00:04:52;3.40;;;2.63;;
79779;SDS011;69258;52.050;10.334;2023-06-14T00:19:54;3.63;;;2.60;;
79779;SDS011;69258;52.050;10.334;2023-06-14T00:34:56;2.67;;;2.30;;
79779;SDS011;69258;52.050;10.334;2023-06-14T00:49:58;2.70;;;2.30;;
79779;SDS011;69258;52.050;10.334;2023-06-14T01:05:00;3.33;;;2.10;;
79779;SDS011;69258;52.050;10.334;2023-06-14T01:20:02;2.30;;;2.10;;
79779;SDS011;69258;52.050;10.334;2023-06-14T01:35:05;2.57;;;2.37;;
79779;SDS011;69258;52.050;10.334;2023-06-14T01:50:07;2.43;;;2.23;;
79779;SDS011;69258;52.050;10.334;2023-06-14T02:05:09;4.23;;;2.30;;
79779;SDS011;69258;52.050;10.334;2023-06-14T02:20:11;2.30;;;2.10;;
79779;SDS011;69258;52.050;10.334;2023-06-14T02:35:14;2.77;;;1.90;;
79779;SDS011;69258;52.050;10.334;2023-06-14T02:50:16;2.20;;;2.00;;
79779;SDS011;69258;52.050;10.334;2023-06-14T03:05:18;2.23;;;2.03;;
79779;SDS011;69258;52.050;10.334;2023-06-14T03:20:19;1.90;;;1.80;;
79779;SDS011;69258;52.050;10.334;2023-06-14T03:35:22;3.07;;;2.10;;
79779;SDS011;69258;52.050;10.334;2023-06-14T03:50:24;2.47;;;1.80;;
79779;SDS011;69258;52.050;10.334;2023-06-14T04:05:26;2.77;;;1.93;;
79779;SDS011;69258;52.050;10.334;2023-06-14T04:20:28;3.80;;;2.37;;
79779;SDS011;69258;52.050;10.334;2023-06-14T04:35:30;3.23;;;2.00;;
79779;SDS011;69258;52.050;10.334;2023-06-14T04:50:32;4.23;;;2.10;;
79779;SDS011;69258;52.050;10.334;2023-06-14T05:05:34;12.87;;;2.30;;
79779;SDS011;69258;52.050;10.334;2023-06-14T05:20:35;5.63;;;2.00;;
79779;SDS011;69258;52.050;10.334;2023-06-14T05:35:37;2.23;;;2.03;;
79779;SDS011;69258;52.050;10.334;2023-06-14T05:50:39;2.40;;;2.00;;
79779;SDS011;69258;52.050;10.334;2023-06-14T06:05:41;4.33;;;2.13;;
79779;SDS011;69258;52.050;10.334;2023-06-14T06:20:43;2.20;;;1.80;;
79779;SDS011;69258;52.050;10.334;2023-06-14T06:35:44;4.00;;;2.17;;
79779;SDS011;69258;52.050;10.334;2023-06-14T06:50:46;8.30;;;2.30;;
79779;SDS011;69258;52.050;10.334;2023-06-14T07:05:48;3.97;;;2.10;;
79779;SDS011;69258;52.050;10.334;2023-06-14T07:20:50;2.90;;;1.93;;
79779;SDS011;69258;52.050;10.334;2023-06-14T07:35:52;2.27;;;2.07;;
79779;SDS011;69258;52.050;10.334;2023-06-14T07:50:53;2.47;;;2.10;;
79779;SDS011;69258;52.050;10.334;2023-06-14T08:05:55;3.33;;;2.17;;
79779;SDS011;69258;52.050;10.334;2023-06-14T08:20:57;2.00;;;1.80;;
79779;SDS011;69258;52.050;10.334;2023-06-14T08:35:59;2.73;;;1.70;;
79779;SDS011;69258;52.050;10.334;2023-06-14T08:51:00;2.53;;;1.97;;
79779;SDS011;69258;52.050;10.334;2023-06-14T09:06:03;1.77;;;1.67;;
79779;SDS011;69258;52.050;10.334;2023-06-14T09:21:07;5.27;;;1.90;;
79779;SDS011;69258;52.050;10.334;2023-06-14T09:36:10;3.03;;;2.10;;
79779;SDS011;69258;52.050;10.334;2023-06-14T09:51:13;3.43;;;1.73;;
79779;SDS011;69258;52.050;10.334;2023-06-14T10:06:17;2.17;;;1.67;;
79779;SDS011;69258;52.050;10.334;2023-06-14T10:21:23;3.03;;;2.13;;
79779;SDS011;69258;52.050;10.334;2023-06-14T10:36:33;2.47;;;2.10;;
79779;SDS011;69258;52.050;10.334;2023-06-14T10:51:38;2.23;;;1.97;;
79779;SDS011;69258;52.050;10.334;2023-06-14T11:06:47;3.33;;;1.93;;
79779;SDS011;69258;52.050;10.334;2023-06-14T11:21:50;3.60;;;2.10;;
79779;SDS011;69258;52.050;10.334;2023-06-14T11:36:52;2.87;;;1.83;;
79779;SDS011;69258;52.050;10.334;2023-06-14T11:51:54;2.23;;;1.90;;
79779;SDS011;69258;52.050;10.334;2023-06-14T12:06:55;4.43;;;2.00;;
79779;SDS011;69258;52.050;10.334;2023-06-14T12:22:00;2.10;;;1.90;;
79779;SDS011;69258;52.050;10.334;2023-06-14T12:37:02;2.87;;;2.00;;
79779;SDS011;69258;52.050;10.334;2023-06-14T12:52:04;2.53;;;2.23;;
79779;SDS011;69258;52.050;10.334;2023-06-14T13:07:06;3.30;;;2.30;;
79779;SDS011;69258;52.050;10.334;2023-06-14T13:22:08;2.53;;;2.33;;
79779;SDS011;69258;52.050;10.334;2023-06-14T13:37:10;4.83;;;2.80;;
79779;SDS011;69258;52.050;10.334;2023-06-14T13:52:12;3.30;;;2.20;;
79779;SDS011;69258;52.050;10.334;2023-06-14T14:07:13;5.67;;;2.23;;
79779;SDS011;69258;52.050;10.334;2023-06-14T14:22:15;5.30;;;2.50;;
79779;SDS011;69258;52.050;10.334;2023-06-14T14:37:17;6.27;;;2.50;;
79779;SDS011;69258;52.050;10.334;2023-06-14T14:52:19;5.57;;;2.60;;
79779;SDS011;69258;52.050;10.334;2023-06-14T15:07:25;3.50;;;2.20;;
79779;SDS011;69258;52.050;10.334;2023-06-14T15:22:26;4.13;;;2.60;;
79779;SDS011;69258;52.050;10.334;2023-06-14T15:37:28;4.53;;;2.30;;
79779;SDS011;69258;52.050;10.334;2023-06-14T15:52:30;5.03;;;2.80;;
79779;SDS011;69258;52.050;10.334;2023-06-14T16:07:32;4.23;;;2.40;;
79779;SDS011;69258;52.050;10.334;2023-06-14T16:22:34;3.80;;;2.60;;
79779;SDS011;69258;52.050;10.334;2023-06-14T16:37:36;3.07;;;2.87;;
79779;SDS011;69258;52.050;10.334;2023-06-14T16:52:38;7.50;;;3.30;;
79779;SDS011;69258;52.050;10.334;2023-06-14T17:07:40;6.03;;;3.23;;
79779;SDS011;69258;52.050;10.334;2023-06-14T17:22:42;8.03;;;3.10;;
79779;SDS011;69258;52.050;10.334;2023-06-14T17:37:46;6.47;;;3.50;;
79779;SDS011;69258;52.050;10.334;2023-06-14T17:52:48;4.27;;;3.20;;
79779;SDS011;69258;52.050;10.334;2023-06-14T18:07:50;4.73;;;3.13;;
79779;SDS011;69258;52.050;10.334;2023-06-14T18:22:52;5.30;;;3.00;;
79779;SDS011;69258;52.050;10.334;2023-06-14T18:37:55;3.10;;;2.83;;
79779;SDS011;69258;52.050;10.334;2023-06-14T18:52:57;4.33;;;3.30;;
79779;SDS011;69258;52.050;10.334;2023-06-14T19:07:59;3.40;;;3.10;;
79779;SDS011;69258;52.050;10.334;2023-06-14T19:23:01;4.00;;;2.90;;
79779;SDS011;69258;52.050;10.334;2023-06-14T19:38:03;3.50;;;3.20;;
79779;SDS011;69258;52.050;10.334;2023-06-14T19:53:05;4.13;;;2.70;;
79779;SDS011;69258;52.050;10.334;2023-06-14T20:08:07;3.20;;;2.90;;
79779;SDS011;69258;52.050;10.334;2023-06-14T20:23:10;3.80;;;2.90;;
79779;SDS011;69258;52.050;10.334;2023-06-14T20:38:11;5.33;;;3.03;;
79779;SDS011;69258;52.050;10.334;2023-06-14T20:53:13;3.27;;;2.90;;
79779;SDS011;69258;52.050;10.334;2023-06-14T21:08:15;4.67;;;3.10;;
79779;SDS011;69258;52.050;10.334;2023-06-14T21:23:17;6.30;;;3.53;;
79779;SDS011;69258;52.050;10.334;2023-06-14T21:38:19;3.20;;;2.87;;
79779;SDS011;69258;52.050;10.334;2023-06-14T21:53:21;4.03;;;3.20;;
79779;SDS011;69258;52.050;10.334;2023-06-14T22:08:22;4.03;;;2.87;;
79779;SDS011;69258;52.050;10.334;2023-06-14T22:23:24;3.80;;;3.17;;
79779;SDS011;69258;52.050;10.334;2023-06-14T22:38:26;5.50;;;2.97;;
79779;SDS011;69258;52.050;10.334;2023-06-14T22:53:29;3.83;;;2.47;;
79779;SDS011;69258;52.050;10.334;2023-06-14T23:08:31;2.80;;;2.50;;
79779;SDS011;69258;52.050;10.334;2023-06-14T23:23:33;4.53;;;2.90;;
79779;SDS011;69258;52.050;10.334;2023-06-14T23:38:35;4.97;;;2.80;;
79779;SDS011;69258;52.050;10.334;2023-06-14T23:53:36;5.07;;;2.97;;
